Time;durP1;ratioP1;P1;durP2;ratioP2;P2;SDS_P1;SDS_P2;PMS_P1;PMS_P2;Temp;Humidity;BMP_temperature;BMP_pressure;BME280_temperature;BME280_humidity;BME280_pressure;Samples;Min_cycle;Max_cycle;Signal;HPM_P1;HPM_P2
2024/03/07 00:01:32;;;;;;;27.05;6.97;;;;;;;;;;5112747;28;20023;-69
2024/03/07 00:03:57;;;;;;;18.02;6.10;;;;;;;;;;5112871;28;20081;-70
2024/03/07 00:06:23;;;;;;;18.58;7.10;;;;;;;;;;5105030;28;20035;-70
2024/03/07 00:08:48;;;;;;;15.68;5.85;;;;;;;;;;5092734;28;20513;-69
2024/03/07 00:11:14;;;;;;;17.27;5.72;;;;;;;;;;5098808;28;20020;-71
2024/03/07 00:13:39;;;;;;;16.48;5.57;;;;;;;;;;5112728;28;20505;-72
2024/03/07 00:16:05;;;;;;;18.10;6.50;;;;;;;;;;5112874;28;20330;-70
2024/03/07 00:18:30;;;;;;;15.63;6.40;;;;;;;;;;5112092;28;20042;-67
2024/03/07 00:20:55;;;;;;;21.85;7.07;;;;;;;;;;5112677;28;20020;-70
2024/03/07 00:23:21;;;;;;;29.55;9.57;;;;;;;;;;5112725;28;20411;-70
2024/03/07 00:25:49;;;;;;;25.25;10.32;;;;;;;;;;5107109;28;20442;-73
2024/03/07 00:28:17;;;;;;;20.70;9.18;;;;;;;;;;5092872;28;20028;-72
2024/03/07 00:30:42;;;;;;;24.23;8.82;;;;;;;;;;5092045;28;20052;-74
2024/03/07 00:33:08;;;;;;;25.55;8.52;;;;;;;;;;5092134;28;20051;-74
2024/03/07 00:35:33;;;;;;;26.30;8.23;;;;;;;;;;5092517;28;20044;-73
2024/03/07 00:37:59;;;;;;;23.83;8.38;;;;;;;;;;5093290;28;20067;-73
2024/03/07 00:40:24;;;;;;;23.92;7.80;;;;;;;;;;5096306;28;20047;-69
2024/03/07 00:42:50;;;;;;;16.85;7.47;;;;;;;;;;5112453;28;20499;-68
2024/03/07 00:45:16;;;;;;;20.08;7.10;;;;;;;;;;5112667;28;20019;-71
2024/03/07 00:47:41;;;;;;;24.45;6.93;;;;;;;;;;5104501;28;20024;-70
2024/03/07 00:50:08;;;;;;;16.42;6.22;;;;;;;;;;5092199;28;20443;-69
2024/03/07 00:52:34;;;;;;;21.08;7.35;;;;;;;;;;5091743;28;20048;-70
2024/03/07 00:54:59;;;;;;;24.80;6.90;;;;;;;;;;5093458;28;20035;-72
2024/03/07 00:57:25;;;;;;;22.70;7.35;;;;;;;;;;5091689;28;20099;-70
2024/03/07 00:59:50;;;;;;;15.95;7.00;;;;;;;;;;5095438;28;20094;-71
2024/03/07 01:02:17;;;;;;;20.00;6.75;;;;;;;;;;5095342;28;20026;-71
2024/03/07 01:04:42;;;;;;;20.15;6.97;;;;;;;;;;5095476;28;20081;-71
2024/03/07 01:07:08;;;;;;;15.38;6.63;;;;;;;;;;5095339;28;20024;-70
2024/03/07 01:09:35;;;;;;;16.98;6.75;;;;;;;;;;5096707;28;20018;-71
2024/03/07 01:12:03;;;;;;;12.90;6.32;;;;;;;;;;5075499;28;20430;-70
2024/03/07 01:14:28;;;;;;;19.30;6.22;;;;;;;;;;5075663;28;20027;-71
2024/03/07 01:16:54;;;;;;;23.13;5.80;;;;;;;;;;5098574;28;20027;-70
2024/03/07 01:19:19;;;;;;;22.10;7.35;;;;;;;;;;5115423;28;20036;-70
2024/03/07 01:21:45;;;;;;;16.48;6.20;;;;;;;;;;5116236;28;20337;-69
2024/03/07 01:24:10;;;;;;;20.92;5.80;;;;;;;;;;5112843;28;20062;-71
2024/03/07 01:26:35;;;;;;;13.43;5.50;;;;;;;;;;5096850;27;20451;-67
2024/03/07 01:29:01;;;;;;;13.40;5.30;;;;;;;;;;5095926;28;20362;-73
2024/03/07 01:31:27;;;;;;;14.20;4.82;;;;;;;;;;5095265;28;20027;-75
2024/03/07 01:33:52;;;;;;;15.23;5.22;;;;;;;;;;5095098;28;20024;-72
2024/03/07 01:36:18;;;;;;;20.88;5.30;;;;;;;;;;5107876;28;20458;-74
2024/03/07 01:38:44;;;;;;;14.10;4.85;;;;;;;;;;5112933;28;20044;-72
2024/03/07 01:41:09;;;;;;;15.00;5.03;;;;;;;;;;5112149;28;20030;-72
2024/03/07 01:43:34;;;;;;;16.75;5.15;;;;;;;;;;5115340;28;20361;-60
2024/03/07 01:46:00;;;;;;;16.13;5.25;;;;;;;;;;5116013;28;20019;-72
2024/03/07 01:48:28;;;;;;;13.85;5.18;;;;;;;;;;5115225;28;20065;-73
2024/03/07 01:51:04;;;;;;;13.23;4.75;;;;;;;;;;5115280;28;20024;-73
2024/03/07 01:53:30;;;;;;;18.23;6.00;;;;;;;;;;5113791;28;20103;-73
2024/03/07 01:55:56;;;;;;;20.73;6.43;;;;;;;;;;5097416;28;20046;-71
2024/03/07 01:58:22;;;;;;;13.60;4.80;;;;;;;;;;5095574;28;20035;-73
2024/03/07 02:00:47;;;;;;;17.20;4.90;;;;;;;;;;5114938;28;20515;-71
2024/03/07 02:03:16;;;;;;;17.45;5.03;;;;;;;;;;5115344;28;20081;-72
2024/03/07 02:05:41;;;;;;;15.95;4.50;;;;;;;;;;5114997;28;20024;-73
2024/03/07 02:08:07;;;;;;;14.82;5.15;;;;;;;;;;5113373;28;20140;-70
2024/03/07 02:10:32;;;;;;;18.40;5.25;;;;;;;;;;5097793;28;20103;-73
2024/03/07 02:12:58;;;;;;;14.70;5.05;;;;;;;;;;5094096;28;20028;-73
2024/03/07 02:15:23;;;;;;;16.83;4.68;;;;;;;;;;5093635;28;20084;-74
2024/03/07 02:17:49;;;;;;;18.23;5.07;;;;;;;;;;5094086;28;20028;-73
2024/03/07 02:20:15;;;;;;;16.55;5.05;;;;;;;;;;5094137;28;20168;-73
2024/03/07 02:22:41;;;;;;;13.43;5.50;;;;;;;;;;5096439;28;21379;-73
2024/03/07 02:25:09;;;;;;;17.42;5.05;;;;;;;;;;5097018;28;20016;-62
2024/03/07 02:27:35;;;;;;;17.13;4.90;;;;;;;;;;5094098;28;20383;-72
2024/03/07 02:30:03;;;;;;;12.90;4.50;;;;;;;;;;5093085;28;20031;-74
2024/03/07 02:32:30;;;;;;;11.23;4.80;;;;;;;;;;5093847;28;20020;-74
2024/03/07 02:34:55;;;;;;;11.63;4.57;;;;;;;;;;5093439;28;20039;-70
2024/03/07 02:37:21;;;;;;;10.30;4.65;;;;;;;;;;5094027;28;20028;-74
2024/03/07 02:39:46;;;;;;;10.70;4.55;;;;;;;;;;5111240;28;20122;-74
2024/03/07 02:42:11;;;;;;;14.77;4.35;;;;;;;;;;5114715;28;20024;-72
2024/03/07 02:44:38;;;;;;;16.85;4.80;;;;;;;;;;5114826;28;20019;-71
2024/03/07 02:47:04;;;;;;;15.52;4.90;;;;;;;;;;5112769;28;20036;-71
2024/03/07 02:49:29;;;;;;;13.65;4.70;;;;;;;;;;5096860;28;20449;-72
2024/03/07 02:51:55;;;;;;;14.52;4.65;;;;;;;;;;5094173;28;20044;-72
2024/03/07 02:54:20;;;;;;;13.63;4.70;;;;;;;;;;5110106;28;20035;-73
2024/03/07 02:56:46;;;;;;;15.15;4.85;;;;;;;;;;5113565;28;20357;-72
2024/03/07 02:59:11;;;;;;;12.35;4.85;;;;;;;;;;5113722;28;20095;-74
2024/03/07 03:01:37;;;;;;;13.32;5.00;;;;;;;;;;5113992;28;20031;-73
2024/03/07 03:04:02;;;;;;;11.73;4.40;;;;;;;;;;5113643;28;20015;-73
2024/03/07 03:06:28;;;;;;;18.58;5.15;;;;;;;;;;5108821;28;20499;-72
2024/03/07 03:08:54;;;;;;;15.73;5.40;;;;;;;;;;5113916;28;20085;-71
2024/03/07 03:11:20;;;;;;;16.23;5.63;;;;;;;;;;5113421;28;20050;-71
2024/03/07 03:13:47;;;;;;;17.27;5.18;;;;;;;;;;5096903;28;20024;-70
2024/03/07 03:16:13;;;;;;;16.83;5.20;;;;;;;;;;5093167;28;20028;-71
2024/03/07 03:18:38;;;;;;;16.05;5.25;;;;;;;;;;5093559;28;20285;-70
2024/03/07 03:21:04;;;;;;;11.27;5.45;;;;;;;;;;5095911;28;20015;-70
2024/03/07 03:23:30;;;;;;;13.30;5.55;;;;;;;;;;5113701;28;20184;-72
2024/03/07 03:25:55;;;;;;;19.48;5.85;;;;;;;;;;5113576;28;20019;-72
2024/03/07 03:28:21;;;;;;;23.15;6.45;;;;;;;;;;5113329;28;20051;-71
2024/03/07 03:30:47;;;;;;;20.67;6.85;;;;;;;;;;5113511;28;20318;-72
2024/03/07 03:33:12;;;;;;;33.28;9.38;;;;;;;;;;5114024;28;20019;-71
2024/03/07 03:35:38;;;;;;;42.50;13.23;;;;;;;;;;5109219;28;20024;-71
2024/03/07 03:38:04;;;;;;;48.03;15.00;;;;;;;;;;5112912;28;20315;-73
2024/03/07 03:40:29;;;;;;;60.45;15.07;;;;;;;;;;5113698;28;20111;-72
2024/03/07 03:42:55;;;;;;;48.22;15.30;;;;;;;;;;5113359;28;20023;-71
2024/03/07 03:45:20;;;;;;;48.22;14.23;;;;;;;;;;5112950;28;20019;-72
2024/03/07 03:47:47;;;;;;;45.13;14.35;;;;;;;;;;5112810;28;20428;-71
2024/03/07 03:50:13;;;;;;;41.60;13.55;;;;;;;;;;5110219;28;20034;-71
2024/03/07 03:52:42;;;;;;;42.15;13.95;;;;;;;;;;5092860;28;20458;-72
2024/03/07 03:55:12;;;;;;;36.70;12.60;;;;;;;;;;5092885;28;20107;-70
2024/03/07 03:57:38;;;;;;;41.45;12.25;;;;;;;;;;5093332;28;20036;-74
2024/03/07 04:00:12;;;;;;;42.08;12.75;;;;;;;;;;5093885;28;20020;-73
2024/03/07 04:02:39;;;;;;;36.70;12.00;;;;;;;;;;5113244;28;20035;-74
2024/03/07 04:05:04;;;;;;;32.47;11.68;;;;;;;;;;5109746;28;20016;-72
2024/03/07 04:07:32;;;;;;;37.70;10.52;;;;;;;;;;5093037;28;20047;-72
2024/03/07 04:09:58;;;;;;;30.00;11.00;;;;;;;;;;5093190;28;20035;-63
2024/03/07 04:12:23;;;;;;;30.63;10.25;;;;;;;;;;5092362;28;20027;-71
2024/03/07 04:14:49;;;;;;;35.30;10.27;;;;;;;;;;5091293;28;20016;-70
2024/03/07 04:17:14;;;;;;;22.58;9.18;;;;;;;;;;5092519;28;20067;-71
2024/03/07 04:19:40;;;;;;;25.48;8.88;;;;;;;;;;5094146;28;20054;-70
2024/03/07 04:22:05;;;;;;;34.25;7.72;;;;;;;;;;5111925;28;20020;-69
2024/03/07 04:24:32;;;;;;;21.00;6.97;;;;;;;;;;5110930;28;20020;-72
2024/03/07 04:27:04;;;;;;;19.98;6.75;;;;;;;;;;5092371;28;20457;-70
2024/03/07 04:29:30;;;;;;;20.08;7.30;;;;;;;;;;5092778;28;20106;-70
2024/03/07 04:31:55;;;;;;;15.80;6.53;;;;;;;;;;5092435;28;20176;-73
2024/03/07 04:34:21;;;;;;;22.02;6.93;;;;;;;;;;5097300;28;20063;-73
2024/03/07 04:36:46;;;;;;;24.90;7.15;;;;;;;;;;5116178;28;20053;-68
2024/03/07 04:39:22;;;;;;;18.20;6.88;;;;;;;;;;5116390;28;20034;-74
2024/03/07 04:41:48;;;;;;;20.65;6.22;;;;;;;;;;5116697;27;20031;-71
2024/03/07 04:44:13;;;;;;;17.33;6.82;;;;;;;;;;5115945;28;20364;-68
2024/03/07 04:46:42;;;;;;;25.48;7.65;;;;;;;;;;5116609;28;20394;-71
2024/03/07 04:49:07;;;;;;;15.93;5.97;;;;;;;;;;5114129;28;20153;-70
2024/03/07 04:51:33;;;;;;;20.60;6.78;;;;;;;;;;5095555;28;20127;-68
2024/03/07 04:53:59;;;;;;;13.05;5.78;;;;;;;;;;5095728;28;20410;-67
2024/03/07 04:56:24;;;;;;;16.25;6.35;;;;;;;;;;5101708;28;20031;-69
2024/03/07 04:58:50;;;;;;;14.02;5.90;;;;;;;;;;5115893;28;20140;-69
2024/03/07 05:01:15;;;;;;;16.08;5.82;;;;;;;;;;5116340;28;20030;-64
2024/03/07 05:03:42;;;;;;;17.58;7.15;;;;;;;;;;5114396;28;20457;-69
2024/03/07 05:06:07;;;;;;;15.52;6.15;;;;;;;;;;5096316;28;20166;-67
2024/03/07 05:08:33;;;;;;;17.10;6.70;;;;;;;;;;5095376;28;20517;-68
2024/03/07 05:10:58;;;;;;;12.85;6.05;;;;;;;;;;5112884;28;20020;-64
2024/03/07 05:13:24;;;;;;;13.40;6.25;;;;;;;;;;5114653;28;20095;-66
2024/03/07 05:15:50;;;;;;;14.68;6.80;;;;;;;;;;5096366;28;20024;-65
2024/03/07 05:18:16;;;;;;;21.55;6.80;;;;;;;;;;5096689;28;20051;-65
2024/03/07 05:20:42;;;;;;;14.82;6.15;;;;;;;;;;5112628;28;20120;-70
2024/03/07 05:23:07;;;;;;;18.20;6.75;;;;;;;;;;5107408;28;20031;-71
2024/03/07 05:25:33;;;;;;;18.33;6.80;;;;;;;;;;5094657;28;20107;-71
2024/03/07 05:27:58;;;;;;;21.27;7.35;;;;;;;;;;5095678;28;20035;-70
2024/03/07 05:30:25;;;;;;;21.45;6.95;;;;;;;;;;5094823;28;20442;-69
2024/03/07 05:32:51;;;;;;;17.52;6.15;;;;;;;;;;5095984;28;20024;-68
2024/03/07 05:35:16;;;;;;;18.30;6.90;;;;;;;;;;5107454;28;20019;-70
2024/03/07 05:37:46;;;;;;;14.35;5.82;;;;;;;;;;5096212;28;20334;-69
2024/03/07 05:40:12;;;;;;;16.95;5.63;;;;;;;;;;5112337;28;20350;-68
2024/03/07 05:42:37;;;;;;;18.23;5.65;;;;;;;;;;5115504;28;20023;-64
2024/03/07 05:45:03;;;;;;;11.63;4.90;;;;;;;;;;5114822;28;20034;-70
2024/03/07 05:47:30;;;;;;;14.40;5.90;;;;;;;;;;5114308;28;20051;-71
2024/03/07 05:49:56;;;;;;;10.60;5.43;;;;;;;;;;5114377;28;20047;-71
2024/03/07 05:52:21;;;;;;;15.50;5.22;;;;;;;;;;5115377;28;20059;-71
2024/03/07 05:54:46;;;;;;;13.50;5.40;;;;;;;;;;5115852;28;20023;-71
2024/03/07 05:57:12;;;;;;;17.48;6.25;;;;;;;;;;5115120;28;20060;-67
2024/03/07 05:59:38;;;;;;;12.27;5.90;;;;;;;;;;5114944;28;20426;-70
2024/03/07 06:02:05;;;;;;;11.48;5.68;;;;;;;;;;5114526;28;20016;-72
2024/03/07 06:04:31;;;;;;;14.40;5.85;;;;;;;;;;5114704;28;20066;-69
2024/03/07 06:06:57;;;;;;;17.58;6.05;;;;;;;;;;5114945;28;20410;-69
2024/03/07 06:09:23;;;;;;;10.57;6.32;;;;;;;;;;5114776;28;20023;-69
2024/03/07 06:11:48;;;;;;;16.05;6.25;;;;;;;;;;5115405;28;20023;-70
2024/03/07 06:14:14;;;;;;;13.45;5.47;;;;;;;;;;5115485;28;20019;-68
2024/03/07 06:16:40;;;;;;;13.88;5.40;;;;;;;;;;5114876;28;20380;-69
2024/03/07 06:19:07;;;;;;;11.82;5.22;;;;;;;;;;5097099;28;20039;-69
2024/03/07 06:21:32;;;;;;;14.70;5.80;;;;;;;;;;5093618;28;20032;-70
2024/03/07 06:24:01;;;;;;;13.85;5.18;;;;;;;;;;5094701;28;20024;-70
2024/03/07 06:26:37;;;;;;;11.40;4.97;;;;;;;;;;5094171;28;20307;-69
2024/03/07 06:29:06;;;;;;;13.98;4.80;;;;;;;;;;5095097;28;20819;-70
2024/03/07 06:31:32;;;;;;;14.60;5.28;;;;;;;;;;5111673;28;20063;-70
2024/03/07 06:33:58;;;;;;;14.38;5.00;;;;;;;;;;5097899;28;20074;-69
2024/03/07 06:36:24;;;;;;;14.25;4.85;;;;;;;;;;5094266;28;20023;-69
2024/03/07 06:38:50;;;;;;;11.80;5.03;;;;;;;;;;5093804;28;20024;-69
2024/03/07 06:41:15;;;;;;;17.00;5.43;;;;;;;;;;5093792;28;20320;-69
2024/03/07 06:43:41;;;;;;;16.25;5.13;;;;;;;;;;5094120;28;20039;-70
2024/03/07 06:46:09;;;;;;;16.23;5.30;;;;;;;;;;5097521;28;20020;-71
2024/03/07 06:48:35;;;;;;;13.82;4.95;;;;;;;;;;5114420;27;20027;-70
2024/03/07 06:51:00;;;;;;;21.35;5.13;;;;;;;;;;5114396;28;20011;-71
2024/03/07 06:53:26;;;;;;;16.30;5.25;;;;;;;;;;5113788;28;20048;-71
2024/03/07 06:55:53;;;;;;;12.75;5.13;;;;;;;;;;5113919;28;20106;-65
2024/03/07 06:58:19;;;;;;;16.13;5.00;;;;;;;;;;5098149;28;20020;-72
2024/03/07 07:00:45;;;;;;;27.73;5.43;;;;;;;;;;5095390;28;20561;-71
2024/03/07 07:03:14;;;;;;;15.43;5.00;;;;;;;;;;5113510;28;20055;-68
2024/03/07 07:05:40;;;;;;;12.30;5.28;;;;;;;;;;5113695;28;20027;-75
2024/03/07 07:08:06;;;;;;;17.45;5.05;;;;;;;;;;5114111;28;20115;-72
2024/03/07 07:10:32;;;;;;;10.15;5.25;;;;;;;;;;5113629;28;20127;-72
2024/03/07 07:12:57;;;;;;;20.65;5.00;;;;;;;;;;5113609;28;20027;-75
2024/03/07 07:15:22;;;;;;;12.32;4.82;;;;;;;;;;5111491;28;20051;-72
2024/03/07 07:17:49;;;;;;;13.40;4.80;;;;;;;;;;5093417;28;20020;-72
2024/03/07 07:20:15;;;;;;;13.15;4.68;;;;;;;;;;5092695;28;20020;-66
2024/03/07 07:22:41;;;;;;;12.93;5.03;;;;;;;;;;5093525;28;20093;-71
2024/03/07 07:25:13;;;;;;;11.07;5.70;;;;;;;;;;5107012;28;20457;-73
2024/03/07 07:27:45;;;;;;;13.93;5.45;;;;;;;;;;5113394;28;20023;-73
2024/03/07 07:30:11;;;;;;;15.48;5.53;;;;;;;;;;5110423;28;20469;-73
2024/03/07 07:32:37;;;;;;;11.23;5.30;;;;;;;;;;5092323;28;20044;-73
2024/03/07 07:35:03;;;;;;;12.27;4.85;;;;;;;;;;5092100;28;20111;-74
2024/03/07 07:37:29;;;;;;;15.98;7.40;;;;;;;;;;5092907;28;20312;-75
2024/03/07 07:39:54;;;;;;;27.60;9.50;;;;;;;;;;5102698;28;20043;-65
2024/03/07 07:42:20;;;;;;;15.35;8.32;;;;;;;;;;5103143;28;20245;-72
2024/03/07 07:44:45;;;;;;;16.35;6.75;;;;;;;;;;5095294;28;20004;-71
2024/03/07 07:47:11;;;;;;;11.90;5.63;;;;;;;;;;5092650;28;20093;-71
2024/03/07 07:49:38;;;;;;;16.40;6.53;;;;;;;;;;5092880;28;20031;-70
2024/03/07 07:52:04;;;;;;;14.27;6.80;;;;;;;;;;5108288;28;20450;-73
2024/03/07 07:54:29;;;;;;;16.23;8.45;;;;;;;;;;5112715;28;20134;-71
2024/03/07 07:56:55;;;;;;;13.50;6.20;;;;;;;;;;5109923;28;20110;-66
2024/03/07 07:59:20;;;;;;;18.00;6.20;;;;;;;;;;5093163;28;20392;-71
2024/03/07 08:01:46;;;;;;;10.57;4.82;;;;;;;;;;5111275;28;20049;-70
2024/03/07 08:04:11;;;;;;;14.43;5.35;;;;;;;;;;5112488;28;20035;-71
2024/03/07 08:06:36;;;;;;;10.10;5.07;;;;;;;;;;5112575;28;20028;-72
2024/03/07 08:09:02;;;;;;;17.15;5.57;;;;;;;;;;5111979;28;20154;-74
2024/03/07 08:11:27;;;;;;;11.43;5.50;;;;;;;;;;5112365;28;20111;-69
2024/03/07 08:13:53;;;;;;;19.00;6.32;;;;;;;;;;5110751;28;20106;-69
2024/03/07 08:16:18;;;;;;;15.38;5.80;;;;;;;;;;5091308;28;20477;-71
2024/03/07 08:18:44;;;;;;;15.77;5.38;;;;;;;;;;5091025;28;20060;-71
2024/03/07 08:21:13;;;;;;;12.68;4.90;;;;;;;;;;5089351;28;20054;-69
2024/03/07 08:23:38;;;;;;;10.60;4.47;;;;;;;;;;5077926;28;20035;-72
2024/03/07 08:26:05;;;;;;;12.30;4.00;;;;;;;;;;5094904;28;20020;-75
2024/03/07 08:28:31;;;;;;;11.32;4.10;;;;;;;;;;5076174;28;20020;-71
2024/03/07 08:30:56;;;;;;;10.85;3.70;;;;;;;;;;5076029;28;20154;-66
2024/03/07 08:33:21;;;;;;;9.95;4.25;;;;;;;;;;5091327;28;20055;-72
2024/03/07 08:35:47;;;;;;;9.88;3.63;;;;;;;;;;5091454;28;20059;-73
2024/03/07 08:38:12;;;;;;;15.07;4.57;;;;;;;;;;5092642;28;20028;-74
2024/03/07 08:40:38;;;;;;;11.07;3.50;;;;;;;;;;5091403;28;20035;-72
2024/03/07 08:43:04;;;;;;;12.70;3.67;;;;;;;;;;5089258;28;20163;-72
2024/03/07 08:45:33;;;;;;;10.63;3.38;;;;;;;;;;5089881;28;20016;-74
2024/03/07 08:47:58;;;;;;;7.95;3.33;;;;;;;;;;5096697;28;20015;-73
2024/03/07 08:50:24;;;;;;;11.18;4.00;;;;;;;;;;5095946;28;20054;-71
2024/03/07 08:52:50;;;;;;;11.38;4.32;;;;;;;;;;5089174;28;20071;-74
2024/03/07 08:55:19;;;;;;;8.75;3.30;;;;;;;;;;5098920;28;20446;-72
2024/03/07 08:57:45;;;;;;;11.25;3.17;;;;;;;;;;5091544;28;20028;-74
2024/03/07 09:00:21;;;;;;;6.60;3.20;;;;;;;;;;5098537;28;20108;-73
2024/03/07 09:02:47;;;;;;;8.55;3.30;;;;;;;;;;5105670;28;20034;-71
2024/03/07 09:05:12;;;;;;;5.80;3.03;;;;;;;;;;5111481;28;20024;-69
2024/03/07 09:07:38;;;;;;;6.57;3.28;;;;;;;;;;5111361;28;20019;-75
2024/03/07 09:10:04;;;;;;;7.63;3.25;;;;;;;;;;5111994;28;20192;-76
2024/03/07 09:12:30;;;;;;;8.70;3.50;;;;;;;;;;5111872;28;20445;-73
2024/03/07 09:14:56;;;;;;;5.70;2.92;;;;;;;;;;5109970;28;20138;-73
2024/03/07 09:17:21;;;;;;;7.63;2.75;;;;;;;;;;5095901;28;20024;-67
2024/03/07 09:19:47;;;;;;;8.85;2.58;;;;;;;;;;5114011;28;20110;-69
2024/03/07 09:22:12;;;;;;;7.55;2.60;;;;;;;;;;5100897;28;20113;-69
2024/03/07 09:24:38;;;;;;;7.72;2.55;;;;;;;;;;5097728;28;20051;-68
2024/03/07 09:27:04;;;;;;;8.40;2.70;;;;;;;;;;5094349;28;20024;-69
2024/03/07 09:29:29;;;;;;;5.95;2.70;;;;;;;;;;5081130;28;20036;-72
2024/03/07 09:31:57;;;;;;;7.03;2.38;;;;;;;;;;5099943;28;20032;-73
2024/03/07 09:34:23;;;;;;;4.85;2.60;;;;;;;;;;5081280;28;20064;-71
2024/03/07 09:36:51;;;;;;;5.72;2.35;;;;;;;;;;5076547;28;20032;-76
2024/03/07 09:39:18;;;;;;;6.22;2.50;;;;;;;;;;5094795;28;20110;-70
2024/03/07 09:41:44;;;;;;;7.43;2.13;;;;;;;;;;5098058;28;20216;-71
2024/03/07 09:44:12;;;;;;;5.15;2.30;;;;;;;;;;5076614;28;20101;-72
2024/03/07 09:46:38;;;;;;;7.65;2.28;;;;;;;;;;5095442;28;20067;-72
2024/03/07 09:49:05;;;;;;;9.85;2.63;;;;;;;;;;5088759;28;20021;-72
2024/03/07 09:51:31;;;;;;;4.65;2.08;;;;;;;;;;5086861;28;20076;-69
2024/03/07 09:53:58;;;;;;;4.55;2.25;;;;;;;;;;5084440;28;20060;-72
2024/03/07 09:56:24;;;;;;;6.82;2.40;;;;;;;;;;5093737;28;20043;-72
2024/03/07 09:58:50;;;;;;;8.85;2.45;;;;;;;;;;5086548;28;20114;-71
2024/03/07 10:01:19;;;;;;;6.80;2.50;;;;;;;;;;5090709;28;20023;-77
2024/03/07 10:03:46;;;;;;;7.93;2.72;;;;;;;;;;5085692;28;20361;-76
2024/03/07 10:06:13;;;;;;;4.72;2.38;;;;;;;;;;5089913;28;20343;-72
2024/03/07 10:08:40;;;;;;;7.53;2.20;;;;;;;;;;5075394;28;20036;-76
2024/03/07 10:11:05;;;;;;;5.95;2.00;;;;;;;;;;5089511;28;20099;-69
2024/03/07 10:13:31;;;;;;;8.20;2.35;;;;;;;;;;5098480;28;20102;-71
2024/03/07 10:15:59;;;;;;;5.30;1.95;;;;;;;;;;5114740;28;20519;-78
2024/03/07 10:18:27;;;;;;;6.57;2.13;;;;;;;;;;5094251;28;20374;-74
2024/03/07 10:20:53;;;;;;;5.30;1.80;;;;;;;;;;5090231;28;20396;-67
2024/03/07 10:23:20;;;;;;;5.03;2.20;;;;;;;;;;5094119;28;20024;-65
2024/03/07 10:25:46;;;;;;;3.88;1.80;;;;;;;;;;5090674;28;20111;-73
2024/03/07 10:28:12;;;;;;;3.33;1.85;;;;;;;;;;5082914;28;20016;-71
2024/03/07 10:30:41;;;;;;;6.80;2.10;;;;;;;;;;5107219;28;20034;-74
2024/03/07 10:33:07;;;;;;;4.05;1.48;;;;;;;;;;5098814;28;20027;-72
2024/03/07 10:35:32;;;;;;;5.28;2.00;;;;;;;;;;5096755;28;20160;-73
2024/03/07 10:38:06;;;;;;;4.25;2.10;;;;;;;;;;5092631;28;20111;-71
2024/03/07 10:40:31;;;;;;;8.75;3.10;;;;;;;;;;5086454;28;20095;-67
2024/03/07 10:42:57;;;;;;;6.28;2.55;;;;;;;;;;5095727;28;20090;-68
2024/03/07 10:45:23;;;;;;;4.55;2.65;;;;;;;;;;5100940;28;20039;-67
2024/03/07 10:47:55;;;;;;;8.18;2.42;;;;;;;;;;5089239;28;20420;-67
2024/03/07 10:50:24;;;;;;;7.68;2.70;;;;;;;;;;5089757;28;20374;-67
2024/03/07 10:52:58;;;;;;;7.78;2.95;;;;;;;;;;5091204;28;20036;-67
2024/03/07 10:55:32;;;;;;;7.78;2.78;;;;;;;;;;5090167;28;20047;-66
2024/03/07 10:58:16;;;;;;;7.07;2.97;;;;;;;;;;5095503;28;20438;-69
2024/03/07 11:00:51;;;;;;;6.57;2.67;;;;;;;;;;5091751;28;20459;-68
2024/03/07 11:03:20;;;;;;;6.70;2.78;;;;;;;;;;5092245;28;20024;-67
2024/03/07 11:05:46;;;;;;;5.22;2.65;;;;;;;;;;5093518;28;20016;-67
2024/03/07 11:08:12;;;;;;;5.57;3.00;;;;;;;;;;5093287;28;20080;-66
2024/03/07 11:10:37;;;;;;;6.82;2.92;;;;;;;;;;5092928;28;20092;-65
2024/03/07 11:13:04;;;;;;;4.97;2.50;;;;;;;;;;5101774;28;20153;-67
2024/03/07 11:15:30;;;;;;;6.20;2.90;;;;;;;;;;5113417;28;20096;-66
2024/03/07 11:17:55;;;;;;;7.70;2.88;;;;;;;;;;5108180;28;20111;-67
2024/03/07 11:20:24;;;;;;;9.30;2.53;;;;;;;;;;5113003;28;20168;-66
2024/03/07 11:22:50;;;;;;;6.70;3.15;;;;;;;;;;5100978;28;20026;-68
2024/03/07 11:25:19;;;;;;;10.88;2.90;;;;;;;;;;5095374;28;20098;-69
2024/03/07 11:28:11;;;;;;;5.30;2.70;;;;;;;;;;5102284;28;20153;-69
2024/03/07 11:30:41;;;;;;;4.70;2.60;;;;;;;;;;5108365;28;20031;-70
2024/03/07 11:33:06;;;;;;;5.70;2.70;;;;;;;;;;5101697;28;20008;-67
2024/03/07 11:35:35;;;;;;;5.75;2.75;;;;;;;;;;5090209;28;20039;-68
2024/03/07 11:38:03;;;;;;;5.40;2.83;;;;;;;;;;5089990;28;20431;-69
2024/03/07 11:40:28;;;;;;;6.72;2.92;;;;;;;;;;5091587;28;20042;-69
2024/03/07 11:42:59;;;;;;;7.75;3.22;;;;;;;;;;5091334;28;20371;-69
2024/03/07 11:45:26;;;;;;;5.60;2.40;;;;;;;;;;5092531;28;20023;-67
2024/03/07 11:48:06;;;;;;;6.75;2.95;;;;;;;;;;5091621;28;20467;-69
2024/03/07 11:50:35;;;;;;;6.13;3.70;;;;;;;;;;5092506;28;20077;-69
2024/03/07 11:53:02;;;;;;;9.30;3.65;;;;;;;;;;5092450;28;20130;-68
2024/03/07 11:55:40;;;;;;;6.68;2.92;;;;;;;;;;5092436;28;20039;-69
2024/03/07 11:58:06;;;;;;;9.48;2.92;;;;;;;;;;5092437;28;20099;-69
2024/03/07 12:00:34;;;;;;;6.97;3.03;;;;;;;;;;5092937;28;20099;-68
2024/03/07 12:03:00;;;;;;;6.20;3.25;;;;;;;;;;5092061;28;20017;-69
2024/03/07 12:05:26;;;;;;;7.85;2.90;;;;;;;;;;5091983;28;20115;-69
2024/03/07 12:07:52;;;;;;;7.07;2.90;;;;;;;;;;5092710;28;20122;-68
2024/03/07 12:10:24;;;;;;;6.00;2.80;;;;;;;;;;5093394;28;20395;-68
2024/03/07 12:12:50;;;;;;;6.03;2.65;;;;;;;;;;5092147;28;20066;-68
2024/03/07 12:15:19;;;;;;;7.03;2.90;;;;;;;;;;5091781;28;20059;-67
2024/03/07 12:17:46;;;;;;;7.82;3.03;;;;;;;;;;5091825;28;20020;-68
2024/03/07 12:22:56;;;;;;;6.55;2.65;;;;;;;;;;5092173;28;20058;-70
2024/03/07 12:25:22;;;;;;;5.75;2.78;;;;;;;;;;5091950;28;20346;-67
2024/03/07 12:28:02;;;;;;;6.75;2.65;;;;;;;;;;5091069;28;20430;-68
2024/03/07 12:30:32;;;;;;;4.78;2.70;;;;;;;;;;5091931;28;20024;-70
2024/03/07 12:32:58;;;;;;;7.15;2.90;;;;;;;;;;5090860;28;20411;-70
2024/03/07 12:35:24;;;;;;;5.45;2.55;;;;;;;;;;5091199;28;20020;-70
2024/03/07 12:37:49;;;;;;;5.45;3.03;;;;;;;;;;5096833;28;20019;-68
2024/03/07 12:40:19;;;;;;;7.57;3.05;;;;;;;;;;5090948;28;20481;-63
2024/03/07 12:42:48;;;;;;;4.63;2.63;;;;;;;;;;5091244;28;20431;-74
2024/03/07 12:45:17;;;;;;;8.80;2.78;;;;;;;;;;5093976;28;20088;-75
2024/03/07 12:47:54;;;;;;;7.25;3.00;;;;;;;;;;5091659;28;20028;-72
2024/03/07 12:50:20;;;;;;;5.45;2.58;;;;;;;;;;5091043;28;20048;-72
2024/03/07 12:52:50;;;;;;;3.75;2.38;;;;;;;;;;5106395;28;20048;-75
2024/03/07 12:55:21;;;;;;;5.65;2.53;;;;;;;;;;5094764;28;20469;-75
2024/03/07 12:57:47;;;;;;;8.00;2.92;;;;;;;;;;5083102;28;20016;-70
2024/03/07 13:00:19;;;;;;;7.95;3.03;;;;;;;;;;5089258;28;20315;-74
2024/03/07 13:02:48;;;;;;;7.13;2.97;;;;;;;;;;5107135;28;20102;-72
2024/03/07 13:05:21;;;;;;;4.78;2.45;;;;;;;;;;5112560;28;20544;-67
2024/03/07 13:07:48;;;;;;;5.07;2.42;;;;;;;;;;5096873;28;20077;-67
2024/03/07 13:10:18;;;;;;;10.13;2.65;;;;;;;;;;5093762;28;20028;-69
2024/03/07 13:12:48;;;;;;;3.40;2.40;;;;;;;;;;5093427;28;20016;-69
2024/03/07 13:15:18;;;;;;;6.00;2.05;;;;;;;;;;5094362;28;20513;-67
2024/03/07 13:17:43;;;;;;;3.65;2.05;;;;;;;;;;5095454;28;20055;-67
2024/03/07 13:20:12;;;;;;;5.53;2.80;;;;;;;;;;5095467;28;20435;-67
2024/03/07 13:22:38;;;;;;;5.95;2.40;;;;;;;;;;5111808;28;20020;-67
2024/03/07 13:25:13;;;;;;;5.50;2.30;;;;;;;;;;5107806;28;20126;-69
2024/03/07 13:27:43;;;;;;;8.63;2.63;;;;;;;;;;5115530;28;20020;-70
2024/03/07 13:30:13;;;;;;;6.85;2.30;;;;;;;;;;5114990;28;20027;-72
2024/03/07 13:32:38;;;;;;;6.97;2.42;;;;;;;;;;5114868;28;20395;-73
2024/03/07 13:35:04;;;;;;;4.05;2.20;;;;;;;;;;5101561;28;20159;-69
2024/03/07 13:37:33;;;;;;;4.03;1.73;;;;;;;;;;5095806;28;20028;-69
2024/03/07 13:39:59;;;;;;;4.70;2.38;;;;;;;;;;5093897;28;20039;-67
2024/03/07 13:42:24;;;;;;;6.78;2.00;;;;;;;;;;5111397;28;20090;-67
2024/03/07 13:44:49;;;;;;;4.32;1.90;;;;;;;;;;5113064;28;20176;-67
2024/03/07 13:47:16;;;;;;;4.53;1.70;;;;;;;;;;5113492;28;20031;-65
2024/03/07 13:49:42;;;;;;;6.10;1.73;;;;;;;;;;5087300;28;20082;-67
2024/03/07 13:52:18;;;;;;;3.63;1.85;;;;;;;;;;5073090;28;20064;-66
2024/03/07 13:54:44;;;;;;;5.78;1.95;;;;;;;;;;5073679;28;20127;-66
2024/03/07 13:57:19;;;;;;;5.28;1.63;;;;;;;;;;5089852;28;20159;-68
2024/03/07 14:00:14;;;;;;;3.05;2.15;;;;;;;;;;5073919;28;20037;-66
2024/03/07 14:02:59;;;;;;;5.55;1.77;;;;;;;;;;5074343;28;20024;-66
2024/03/07 14:05:28;;;;;;;2.08;1.63;;;;;;;;;;5103096;28;20027;-66
2024/03/07 14:08:14;;;;;;;4.68;1.90;;;;;;;;;;5114766;28;20070;-67
2024/03/07 14:11:05;;;;;;;5.78;1.95;;;;;;;;;;5113852;28;20415;-65
2024/03/07 14:13:36;;;;;;;3.75;1.95;;;;;;;;;;5112871;28;20018;-66
2024/03/07 14:16:02;;;;;;;4.75;1.90;;;;;;;;;;5094583;28;20028;-67
2024/03/07 14:18:37;;;;;;;6.57;1.90;;;;;;;;;;5094450;28;20084;-67
2024/03/07 14:21:21;;;;;;;6.63;2.00;;;;;;;;;;5106880;28;20078;-66
2024/03/07 14:24:09;;;;;;;2.28;1.60;;;;;;;;;;5111800;28;20358;-66
2024/03/07 14:26:44;;;;;;;7.30;2.08;;;;;;;;;;5081921;28;20031;-70
2024/03/07 14:29:10;;;;;;;3.77;1.93;;;;;;;;;;5093734;28;20012;-67
2024/03/07 14:31:38;;;;;;;4.20;2.10;;;;;;;;;;5093539;28;20249;-68
2024/03/07 14:34:09;;;;;;;5.85;2.20;;;;;;;;;;5099303;28;20016;-75
2024/03/07 14:36:45;;;;;;;4.53;2.20;;;;;;;;;;5113443;28;20016;-74